sensor_id;sensor_type;location;lat;lon;timestamp;pressure;altitude;pressure_sealevel;temperature;humidity
15444;BME280;7822;48.146;11.576;2023-05-12T00:00:52;94795.34;;;16.14;75.37
15444;BME280;7822;48.146;11.576;2023-05-12T00:03:21;94794.53;;;16.14;75.51
15444;BME280;7822;48.146;11.576;2023-05-12T00:05:49;94800.59;;;16.14;75.50
15444;BME280;7822;48.146;11.576;2023-05-12T00:08:16;94798.94;;;16.13;75.41
15444;BME280;7822;48.146;11.576;2023-05-12T00:10:44;94799.78;;;16.14;75.46
15444;BME280;7822;48.146;11.576;2023-05-12T00:13:13;94792.88;;;16.13;75.42
15444;BME280;7822;48.146;11.576;2023-05-12T00:15:40;94792.88;;;16.13;75.47
15444;BME280;7822;48.146;11.576;2023-05-12T00:18:08;94790.28;;;16.13;75.40
15444;BME280;7822;48.146;11.576;2023-05-12T00:20:36;94794.72;;;16.12;75.33
15444;BME280;7822;48.146;11.576;2023-05-12T00:23:04;94795.50;;;16.13;75.54
15444;BME280;7822;48.146;11.576;2023-05-12T00:25:32;94794.72;;;16.12;75.51
15444;BME280;7822;48.146;11.576;2023-05-12T00:27:59;94795.69;;;16.11;75.44
15444;BME280;7822;48.146;11.576;2023-05-12T00:30:28;94793.88;;;16.12;75.41
15444;BME280;7822;48.146;11.576;2023-05-12T00:32:56;94790.44;;;16.11;75.52
15444;BME280;7822;48.146;11.576;2023-05-12T00:35:24;94790.44;;;16.11;75.48
15444;BME280;7822;48.146;11.576;2023-05-12T00:37:51;94789.63;;;16.11;75.47
15444;BME280;7822;48.146;11.576;2023-05-12T00:40:19;94779.16;;;16.11;75.59
15444;BME280;7822;48.146;11.576;2023-05-12T00:42:46;94773.91;;;16.11;75.51
15444;BME280;7822;48.146;11.576;2023-05-12T00:45:14;94786.03;;;16.12;75.52
15444;BME280;7822;48.146;11.576;2023-05-12T00:47:43;94776.53;;;16.11;75.45
15444;BME280;7822;48.146;11.576;2023-05-12T00:50:11;94775.72;;;16.10;75.53
15444;BME280;7822;48.146;11.576;2023-05-12T00:52:39;94780.81;;;16.12;75.52
15444;BME280;7822;48.146;11.576;2023-05-12T00:55:07;94776.72;;;16.09;75.52
15444;BME280;7822;48.146;11.576;2023-05-12T00:57:34;94772.31;;;16.10;75.40
15444;BME280;7822;48.146;11.576;2023-05-12T01:00:02;94777.53;;;16.10;75.61
15444;BME280;7822;48.146;11.576;2023-05-12T01:02:30;94779.97;;;16.11;75.49
15444;BME280;7822;48.146;11.576;2023-05-12T01:04:59;94780.94;;;16.10;75.67
15444;BME280;7822;48.146;11.576;2023-05-12T01:07:27;94772.13;;;16.11;75.54
15444;BME280;7822;48.146;11.576;2023-05-12T01:09:58;94776.53;;;16.11;75.44
15444;BME280;7822;48.146;11.576;2023-05-12T01:12:27;94774.09;;;16.09;75.63
15444;BME280;7822;48.146;11.576;2023-05-12T01:14:57;94779.16;;;16.11;75.59
15444;BME280;7822;48.146;11.576;2023-05-12T01:17:27;94771.31;;;16.11;75.46
15444;BME280;7822;48.146;11.576;2023-05-12T01:19:59;94767.88;;;16.10;75.44
15444;BME280;7822;48.146;11.576;2023-05-12T01:22:28;94775.56;;;16.12;75.47
15444;BME280;7822;48.146;11.576;2023-05-12T01:24:58;94767.72;;;16.12;75.51
15444;BME280;7822;48.146;11.576;2023-05-12T01:27:27;94769.50;;;16.11;75.75
15444;BME280;7822;48.146;11.576;2023-05-12T01:29:57;94761.66;;;16.11;75.43
15444;BME280;7822;48.146;11.576;2023-05-12T01:32:24;94761.66;;;16.11;75.42
15444;BME280;7822;48.146;11.576;2023-05-12T01:34:52;94766.06;;;16.11;75.57
15444;BME280;7822;48.146;11.576;2023-05-12T01:37:19;94766.91;;;16.11;75.43
15444;BME280;7822;48.146;11.576;2023-05-12T01:39:47;94761.66;;;16.11;75.41
15444;BME280;7822;48.146;11.576;2023-05-12T01:42:14;94764.28;;;16.11;75.42
15444;BME280;7822;48.146;11.576;2023-05-12T01:44:43;94767.88;;;16.10;75.46
15444;BME280;7822;48.146;11.576;2023-05-12T01:47:11;94771.47;;;16.09;75.36
15444;BME280;7822;48.146;11.576;2023-05-12T01:49:40;94767.06;;;16.10;75.62
15444;BME280;7822;48.146;11.576;2023-05-12T01:52:07;94769.69;;;16.10;75.50
15444;BME280;7822;48.146;11.576;2023-05-12T01:54:35;94767.06;;;16.10;75.39
15444;BME280;7822;48.146;11.576;2023-05-12T01:57:03;94765.44;;;16.09;75.36
15444;BME280;7822;48.146;11.576;2023-05-12T01:59:30;94765.44;;;16.09;75.46
15444;BME280;7822;48.146;11.576;2023-05-12T02:01:59;94776.72;;;16.09;75.36
15444;BME280;7822;48.146;11.576;2023-05-12T02:04:27;94763.63;;;16.09;75.45
15444;BME280;7822;48.146;11.576;2023-05-12T02:06:54;94759.38;;;16.08;75.46
15444;BME280;7822;48.146;11.576;2023-05-12T02:09:21;94762.00;;;16.08;75.40
15444;BME280;7822;48.146;11.576;2023-05-12T02:11:49;94765.44;;;16.09;75.49
15444;BME280;7822;48.146;11.576;2023-05-12T02:14:17;94759.38;;;16.08;75.53
15444;BME280;7822;48.146;11.576;2023-05-12T02:16:44;94760.19;;;16.09;75.45
15444;BME280;7822;48.146;11.576;2023-05-12T02:19:14;94764.59;;;16.08;75.42
15444;BME280;7822;48.146;11.576;2023-05-12T02:21:41;94766.44;;;16.08;75.40
15444;BME280;7822;48.146;11.576;2023-05-12T02:24:11;94759.53;;;16.07;75.39
15444;BME280;7822;48.146;11.576;2023-05-12T02:26:40;94755.97;;;16.08;75.53
15444;BME280;7822;48.146;11.576;2023-05-12T02:29:07;94758.56;;;16.08;75.33
15444;BME280;7822;48.146;11.576;2023-05-12T02:31:35;94754.31;;;16.07;75.53
15444;BME280;7822;48.146;11.576;2023-05-12T02:34:03;94755.13;;;16.07;75.61
15444;BME280;7822;48.146;11.576;2023-05-12T02:36:33;94750.09;;;16.06;75.43
15444;BME280;7822;48.146;11.576;2023-05-12T02:39:00;94760.38;;;16.07;75.36
15444;BME280;7822;48.146;11.576;2023-05-12T02:41:28;94747.47;;;16.06;75.33
15444;BME280;7822;48.146;11.576;2023-05-12T02:43:55;94756.94;;;16.07;75.57
15444;BME280;7822;48.146;11.576;2023-05-12T02:46:23;94762.16;;;16.07;75.52
15444;BME280;7822;48.146;11.576;2023-05-12T02:48:51;94759.53;;;16.07;75.51
15444;BME280;7822;48.146;11.576;2023-05-12T02:51:18;94757.75;;;16.07;75.46
15444;BME280;7822;48.146;11.576;2023-05-12T02:53:47;94757.75;;;16.07;75.44
15444;BME280;7822;48.146;11.576;2023-05-12T02:56:16;94765.44;;;16.09;75.37
15444;BME280;7822;48.146;11.576;2023-05-12T02:58:43;94758.56;;;16.08;75.47
15444;BME280;7822;48.146;11.576;2023-05-12T03:01:11;94764.59;;;16.08;75.47
15444;BME280;7822;48.146;11.576;2023-05-12T03:03:38;94767.22;;;16.08;75.51
15444;BME280;7822;48.146;11.576;2023-05-12T03:06:06;94763.97;;;16.06;75.41
15444;BME280;7822;48.146;11.576;2023-05-12T03:08:34;94762.16;;;16.07;75.71
15444;BME280;7822;48.146;11.576;2023-05-12T03:11:03;94762.16;;;16.07;75.52
15444;BME280;7822;48.146;11.576;2023-05-12T03:13:31;94769.03;;;16.08;75.46
15444;BME280;7822;48.146;11.576;2023-05-12T03:15:58;94767.41;;;16.07;75.49
15444;BME280;7822;48.146;11.576;2023-05-12T03:18:27;94770.84;;;16.07;75.51
15444;BME280;7822;48.146;11.576;2023-05-12T03:20:54;94771.66;;;16.08;75.43
15444;BME280;7822;48.146;11.576;2023-05-12T03:23:22;94772.63;;;16.07;75.48
15444;BME280;7822;48.146;11.576;2023-05-12T03:25:49;94770.00;;;16.07;75.51
15444;BME280;7822;48.146;11.576;2023-05-12T03:28:18;94772.63;;;16.07;75.54
15444;BME280;7822;48.146;11.576;2023-05-12T03:30:48;94769.19;;;16.06;75.45
15444;BME280;7822;48.146;11.576;2023-05-12T03:33:15;94767.56;;;16.05;75.50
15444;BME280;7822;48.146;11.576;2023-05-12T03:35:43;94771.97;;;16.05;75.52
15444;BME280;7822;48.146;11.576;2023-05-12T03:38:10;94764.78;;;16.07;75.44
15444;BME280;7822;48.146;11.576;2023-05-12T03:40:37;94768.53;;;16.04;75.54
15444;BME280;7822;48.146;11.576;2023-05-12T03:43:05;94772.81;;;16.05;75.57
15444;BME280;7822;48.146;11.576;2023-05-12T03:45:34;94764.97;;;16.05;75.52
15444;BME280;7822;48.146;11.576;2023-05-12T03:48:01;94771.81;;;16.06;75.37
15444;BME280;7822;48.146;11.576;2023-05-12T03:50:29;94766.75;;;16.05;75.59
15444;BME280;7822;48.146;11.576;2023-05-12T03:52:56;94766.75;;;16.05;75.43
15444;BME280;7822;48.146;11.576;2023-05-12T03:55:23;94765.94;;;16.04;75.46
15444;BME280;7822;48.146;11.576;2023-05-12T03:57:51;94770.34;;;16.04;75.45
15444;BME280;7822;48.146;11.576;2023-05-12T04:00:18;94772.94;;;16.04;75.62
15444;BME280;7822;48.146;11.576;2023-05-12T04:02:48;94771.16;;;16.04;75.66
15444;BME280;7822;48.146;11.576;2023-05-12T04:05:16;94774.78;;;16.03;75.56
15444;BME280;7822;48.146;11.576;2023-05-12T04:07:43;94769.38;;;16.05;75.47
15444;BME280;7822;48.146;11.576;2023-05-12T04:10:11;94767.56;;;16.05;75.66
15444;BME280;7822;48.146;11.576;2023-05-12T04:12:38;94771.00;;;16.06;75.54
15444;BME280;7822;48.146;11.576;2023-05-12T04:15:06;94771.81;;;16.06;75.63
15444;BME280;7822;48.146;11.576;2023-05-12T04:17:34;94769.19;;;16.06;75.61
15444;BME280;7822;48.146;11.576;2023-05-12T04:20:03;94766.44;;;16.08;75.58
15444;BME280;7822;48.146;11.576;2023-05-12T04:22:31;94776.72;;;16.09;75.49
15444;BME280;7822;48.146;11.576;2023-05-12T04:24:58;94775.72;;;16.10;75.58
15444;BME280;7822;48.146;11.576;2023-05-12T04:27:26;94777.53;;;16.10;75.50
15444;BME280;7822;48.146;11.576;2023-05-12T04:29:53;94782.78;;;16.10;75.45
15444;BME280;7822;48.146;11.576;2023-05-12T04:32:21;94783.56;;;16.10;75.60
15444;BME280;7822;48.146;11.576;2023-05-12T04:34:48;94785.22;;;16.11;75.41
15444;BME280;7822;48.146;11.576;2023-05-12T04:37:18;94784.25;;;16.12;75.32
15444;BME280;7822;48.146;11.576;2023-05-12T04:39:47;94788.66;;;16.12;75.48
15444;BME280;7822;48.146;11.576;2023-05-12T04:42:14;94786.03;;;16.12;75.58
15444;BME280;7822;48.146;11.576;2023-05-12T04:44:42;94792.09;;;16.12;75.38
15444;BME280;7822;48.146;11.576;2023-05-12T04:47:11;94788.66;;;16.12;75.48
15444;BME280;7822;48.146;11.576;2023-05-12T04:49:38;94788.66;;;16.12;75.43
15444;BME280;7822;48.146;11.576;2023-05-12T04:52:06;94796.50;;;16.12;75.40
15444;BME280;7822;48.146;11.576;2023-05-12T04:54:35;94799.94;;;16.12;75.47
15444;BME280;7822;48.146;11.576;2023-05-12T04:57:04;94801.75;;;16.12;75.51
15444;BME280;7822;48.146;11.576;2023-05-12T04:59:31;94803.53;;;16.11;75.23
15444;BME280;7822;48.146;11.576;2023-05-12T05:01:59;94801.75;;;16.12;75.57
15444;BME280;7822;48.146;11.576;2023-05-12T05:04:26;94799.94;;;16.12;75.54
15444;BME280;7822;48.146;11.576;2023-05-12T05:06:54;94802.72;;;16.11;75.60
15444;BME280;7822;48.146;11.576;2023-05-12T05:09:21;94808.75;;;16.11;75.49
15444;BME280;7822;48.146;11.576;2023-05-12T05:11:50;94801.88;;;16.10;75.48
15444;BME280;7822;48.146;11.576;2023-05-12T05:14:17;94802.72;;;16.11;75.58
15444;BME280;7822;48.146;11.576;2023-05-12T05:16:45;94806.31;;;16.10;75.58
15444;BME280;7822;48.146;11.576;2023-05-12T05:19:13;94801.09;;;16.10;75.55
15444;BME280;7822;48.146;11.576;2023-05-12T05:21:55;94802.88;;;16.09;75.55
15444;BME280;7822;48.146;11.576;2023-05-12T05:24:22;94802.72;;;16.11;75.57
15444;BME280;7822;48.146;11.576;2023-05-12T05:26:51;94804.50;;;16.10;75.73
15444;BME280;7822;48.146;11.576;2023-05-12T05:29:19;94810.72;;;16.09;75.58
15444;BME280;7822;48.146;11.576;2023-05-12T05:31:46;94810.72;;;16.09;75.71
15444;BME280;7822;48.146;11.576;2023-05-12T05:34:14;94809.91;;;16.09;75.78
15444;BME280;7822;48.146;11.576;2023-05-12T05:36:41;94813.34;;;16.09;75.63
15444;BME280;7822;48.146;11.576;2023-05-12T05:39:09;94808.13;;;16.09;75.57
15444;BME280;7822;48.146;11.576;2023-05-12T05:41:36;94808.94;;;16.10;75.57
15444;BME280;7822;48.146;11.576;2023-05-12T05:44:05;94812.53;;;16.09;75.51
15444;BME280;7822;48.146;11.576;2023-05-12T05:46:33;94808.13;;;16.09;75.64
15444;BME280;7822;48.146;11.576;2023-05-12T05:49:00;94804.69;;;16.09;75.59
15444;BME280;7822;48.146;11.576;2023-05-12T05:51:28;94803.84;;;16.08;75.55
15444;BME280;7822;48.146;11.576;2023-05-12T05:53:55;94807.28;;;16.09;75.73
15444;BME280;7822;48.146;11.576;2023-05-12T05:56:22;94806.47;;;16.08;75.63
15444;BME280;7822;48.146;11.576;2023-05-12T05:58:50;94814.19;;;16.10;75.57
15444;BME280;7822;48.146;11.576;2023-05-12T06:01:19;94811.69;;;16.08;75.62
15444;BME280;7822;48.146;11.576;2023-05-12T06:03:47;94820.38;;;16.09;75.61
15444;BME280;7822;48.146;11.576;2023-05-12T06:06:14;94817.75;;;16.09;75.62
15444;BME280;7822;48.146;11.576;2023-05-12T06:08:42;94806.31;;;16.10;75.52
15444;BME280;7822;48.146;11.576;2023-05-12T06:11:09;94811.69;;;16.08;75.62
15444;BME280;7822;48.146;11.576;2023-05-12T06:13:37;94812.53;;;16.09;75.66
15444;BME280;7822;48.146;11.576;2023-05-12T06:16:04;94814.31;;;16.08;75.58
15444;BME280;7822;48.146;11.576;2023-05-12T06:18:33;94820.38;;;16.09;75.60
15444;BME280;7822;48.146;11.576;2023-05-12T06:21:03;94817.59;;;16.10;75.66
15444;BME280;7822;48.146;11.576;2023-05-12T06:23:31;94824.66;;;16.10;75.42
15444;BME280;7822;48.146;11.576;2023-05-12T06:25:58;94819.41;;;16.10;75.66
15444;BME280;7822;48.146;11.576;2023-05-12T06:28:26;94822.03;;;16.10;75.64
15444;BME280;7822;48.146;11.576;2023-05-12T06:30:53;94822.16;;;16.08;75.60
15444;BME280;7822;48.146;11.576;2023-05-12T06:33:21;94823.00;;;16.09;75.57
15444;BME280;7822;48.146;11.576;2023-05-12T06:35:49;94827.41;;;16.08;75.63
15444;BME280;7822;48.146;11.576;2023-05-12T06:38:17;94827.41;;;16.08;75.52
15444;BME280;7822;48.146;11.576;2023-05-12T06:40:44;94833.47;;;16.09;75.60
15444;BME280;7822;48.146;11.576;2023-05-12T06:43:12;94830.03;;;16.08;75.50
15444;BME280;7822;48.146;11.576;2023-05-12T06:45:40;94836.06;;;16.09;75.65
15444;BME280;7822;48.146;11.576;2023-05-12T06:48:07;94837.88;;;16.08;75.64
15444;BME280;7822;48.146;11.576;2023-05-12T06:50:35;94837.06;;;16.08;75.62
15444;BME280;7822;48.146;11.576;2023-05-12T06:53:04;94828.41;;;16.07;75.53
15444;BME280;7822;48.146;11.576;2023-05-12T06:55:33;94832.63;;;16.08;75.64
15444;BME280;7822;48.146;11.576;2023-05-12T06:58:00;94831.03;;;16.07;75.64
15444;BME280;7822;48.146;11.576;2023-05-12T07:00:28;94838.88;;;16.07;75.80
15444;BME280;7822;48.146;11.576;2023-05-12T07:02:55;94836.25;;;16.07;75.68
15444;BME280;7822;48.146;11.576;2023-05-12T07:05:23;94829.38;;;16.06;75.70
15444;BME280;7822;48.146;11.576;2023-05-12T07:07:51;94832.81;;;16.07;75.73
15444;BME280;7822;48.146;11.576;2023-05-12T10:56:57;94871.72;;;16.02;75.74
15444;BME280;7822;48.146;11.576;2023-05-12T11:00:00;94873.38;;;16.03;76.00
15444;BME280;7822;48.146;11.576;2023-05-12T11:03:13;94862.91;;;16.03;75.95
15444;BME280;7822;48.146;11.576;2023-05-12T11:10:07;94863.75;;;16.03;75.79
15444;BME280;7822;48.146;11.576;2023-05-12T13:06:43;94878.28;;;16.06;75.75
15444;BME280;7822;48.146;11.576;2023-05-12T13:09:11;94885.31;;;16.05;75.69
15444;BME280;7822;48.146;11.576;2023-05-12T13:15:15;94883.66;;;16.04;75.70
15444;BME280;7822;48.146;11.576;2023-05-12T16:51:37;94901.34;;;16.02;75.81
15444;BME280;7822;48.146;11.576;2023-05-12T16:54:03;94904.94;;;16.01;75.88
15444;BME280;7822;48.146;11.576;2023-05-12T16:56:30;94911.81;;;16.02;75.96
15444;BME280;7822;48.146;11.576;2023-05-12T16:58:58;94905.75;;;16.02;75.86
15444;BME280;7822;48.146;11.576;2023-05-12T17:01:26;94910.19;;;16.01;75.85
15444;BME280;7822;48.146;11.576;2023-05-12T17:03:55;94903.13;;;16.02;75.90
15444;BME280;7822;48.146;11.576;2023-05-12T17:06:23;94914.41;;;16.02;75.95
15444;BME280;7822;48.146;11.576;2023-05-12T17:08:51;94905.59;;;16.03;75.72
15444;BME280;7822;48.146;11.576;2023-05-12T17:11:19;94907.38;;;16.03;75.73
15444;BME280;7822;48.146;11.576;2023-05-12T17:13:46;94912.63;;;16.03;75.71
15444;BME280;7822;48.146;11.576;2023-05-12T17:16:14;94909.00;;;16.04;75.72
15444;BME280;7822;48.146;11.576;2023-05-12T17:18:41;94911.81;;;16.02;75.96
15444;BME280;7822;48.146;11.576;2023-05-12T17:21:12;94922.91;;;16.04;75.77
15444;BME280;7822;48.146;11.576;2023-05-12T17:23:39;94908.22;;;16.03;75.75
15444;BME280;7822;48.146;11.576;2023-05-12T17:26:08;94918.69;;;16.03;75.76
15444;BME280;7822;48.146;11.576;2023-05-12T17:28:35;94916.06;;;16.03;75.78
15444;BME280;7822;48.146;11.576;2023-05-12T17:31:03;94927.31;;;16.04;75.68
15444;BME280;7822;48.146;11.576;2023-05-12T17:33:32;94923.91;;;16.03;75.69
15444;BME280;7822;48.146;11.576;2023-05-12T17:36:00;94931.78;;;16.03;75.68
15444;BME280;7822;48.146;11.576;2023-05-12T17:38:37;94929.94;;;16.04;75.78
15444;BME280;7822;48.146;11.576;2023-05-12T17:41:05;94932.56;;;16.04;75.67
15444;BME280;7822;48.146;11.576;2023-05-12T17:43:34;94926.53;;;16.03;75.72
15444;BME280;7822;48.146;11.576;2023-05-12T17:46:01;94924.72;;;16.04;75.76
15444;BME280;7822;48.146;11.576;2023-05-12T17:48:29;94935.19;;;16.04;75.90
15444;BME280;7822;48.146;11.576;2023-05-12T17:50:58;94937.00;;;16.03;75.73
15444;BME280;7822;48.146;11.576;2023-05-12T17:53:26;94936.19;;;16.03;75.72
15444;BME280;7822;48.146;11.576;2023-05-12T17:55:54;94937.00;;;16.03;75.75
15444;BME280;7822;48.146;11.576;2023-05-12T17:58:21;94942.22;;;16.03;75.76
15444;BME280;7822;48.146;11.576;2023-05-12T18:00:50;94939.63;;;16.03;75.85
15444;BME280;7822;48.146;11.576;2023-05-12T18:03:18;94937.78;;;16.04;75.83
15444;BME280;7822;48.146;11.576;2023-05-12T18:05:49;94954.31;;;16.04;75.74
15444;BME280;7822;48.146;11.576;2023-05-12T18:08:17;94944.84;;;16.03;75.78
15444;BME280;7822;48.146;11.576;2023-05-12T18:10:44;94952.69;;;16.03;75.70
15444;BME280;7822;48.146;11.576;2023-05-12T18:13:12;94956.28;;;16.02;75.75
15444;BME280;7822;48.146;11.576;2023-05-12T18:15:41;94950.09;;;16.03;75.70
15444;BME280;7822;48.146;11.576;2023-05-12T18:18:10;94953.50;;;16.04;75.67
15444;BME280;7822;48.146;11.576;2023-05-12T18:20:39;94953.50;;;16.04;75.79
15444;BME280;7822;48.146;11.576;2023-05-12T18:23:07;94945.81;;;16.02;75.73
15444;BME280;7822;48.146;11.576;2023-05-12T18:25:35;94954.50;;;16.03;75.76
15444;BME280;7822;48.146;11.576;2023-05-12T18:28:02;94954.50;;;16.03;75.68
15444;BME280;7822;48.146;11.576;2023-05-12T18:30:32;94951.88;;;16.03;75.71
15444;BME280;7822;48.146;11.576;2023-05-12T18:32:59;94948.13;;;16.05;75.69
15444;BME280;7822;48.146;11.576;2023-05-12T18:35:28;94952.03;;;16.09;75.70
15444;BME280;7822;48.146;11.576;2023-05-12T18:37:56;94950.25;;;16.34;76.70
15444;BME280;7822;48.146;11.576;2023-05-12T18:40:23;94962.19;;;16.37;76.34
15444;BME280;7822;48.146;11.576;2023-05-12T18:42:51;94952.34;;;16.30;75.85
15444;BME280;7822;48.146;11.576;2023-05-12T18:45:18;94965.28;;;16.24;75.17
15444;BME280;7822;48.146;11.576;2023-05-12T18:47:46;94963.50;;;16.16;74.55
15444;BME280;7822;48.146;11.576;2023-05-12T18:50:14;94959.91;;;16.09;74.21
15444;BME280;7822;48.146;11.576;2023-05-12T18:52:43;94958.59;;;16.05;74.18
15444;BME280;7822;48.146;11.576;2023-05-12T18:55:10;94966.75;;;16.02;73.92
15444;BME280;7822;48.146;11.576;2023-05-12T18:57:38;94966.91;;;16.01;73.86
15444;BME280;7822;48.146;11.576;2023-05-12T19:00:06;94965.63;;;15.97;73.70
15444;BME280;7822;48.146;11.576;2023-05-12T19:02:34;94965.75;;;15.95;73.30
15444;BME280;7822;48.146;11.576;2023-05-12T19:05:02;94974.75;;;15.93;72.76
15444;BME280;7822;48.146;11.576;2023-05-12T19:07:30;94975.72;;;15.92;72.58
15444;BME280;7822;48.146;11.576;2023-05-12T19:40:38;94991.59;;;15.90;70.26
15444;BME280;7822;48.146;11.576;2023-05-12T19:43:05;94994.03;;;15.92;70.18
15444;BME280;7822;48.146;11.576;2023-05-12T19:45:35;94991.25;;;15.93;70.15
15444;BME280;7822;48.146;11.576;2023-05-12T19:48:03;94990.28;;;15.94;70.13
15444;BME280;7822;48.146;11.576;2023-05-12T19:50:30;94989.28;;;15.95;69.56
15444;BME280;7822;48.146;11.576;2023-05-12T19:52:58;94991.78;;;15.97;69.24
15444;BME280;7822;48.146;11.576;2023-05-12T19:55:25;94999.44;;;15.98;69.36
15444;BME280;7822;48.146;11.576;2023-05-12T19:57:54;94990.63;;;15.99;69.00
15444;BME280;7822;48.146;11.576;2023-05-12T20:00:22;94999.94;;;16.02;69.16
15444;BME280;7822;48.146;11.576;2023-05-12T20:02:51;95002.25;;;16.05;69.02
15444;BME280;7822;48.146;11.576;2023-05-12T20:05:19;94996.03;;;16.06;68.75
15444;BME280;7822;48.146;11.576;2023-05-12T20:07:47;94992.44;;;16.07;68.51
15444;BME280;7822;48.146;11.576;2023-05-12T20:10:15;95000.94;;;16.09;68.50
15444;BME280;7822;48.146;11.576;2023-05-12T20:12:42;94992.91;;;16.10;68.28
15444;BME280;7822;48.146;11.576;2023-05-12T20:15:11;94997.34;;;16.10;68.30
15444;BME280;7822;48.146;11.576;2023-05-12T20:17:39;94995.38;;;16.12;68.32
15444;BME280;7822;48.146;11.576;2023-05-12T20:20:08;94997.00;;;16.13;68.03
15444;BME280;7822;48.146;11.576;2023-05-12T20:22:37;94999.63;;;16.13;68.17
15444;BME280;7822;48.146;11.576;2023-05-12T20:25:05;95004.72;;;16.14;68.18
15444;BME280;7822;48.146;11.576;2023-05-12T20:27:32;94998.66;;;16.14;68.08
15444;BME280;7822;48.146;11.576;2023-05-12T20:30:00;94998.66;;;16.14;67.83
15444;BME280;7822;48.146;11.576;2023-05-12T20:32:29;94998.00;;;16.12;67.58
15444;BME280;7822;48.146;11.576;2023-05-12T20:34:56;95001.09;;;16.15;67.79
15444;BME280;7822;48.146;11.576;2023-05-12T20:37:24;94996.03;;;16.14;67.51
15444;BME280;7822;48.146;11.576;2023-05-12T20:39:52;94999.81;;;16.11;67.42
15444;BME280;7822;48.146;11.576;2023-05-12T20:42:20;95001.28;;;16.14;68.23
15444;BME280;7822;48.146;11.576;2023-05-12T20:44:48;95001.28;;;16.14;67.97
15444;BME280;7822;48.146;11.576;2023-05-12T20:47:16;94999.63;;;16.13;67.80
15444;BME280;7822;48.146;11.576;2023-05-12T20:49:45;95001.94;;;16.16;67.91
15444;BME280;7822;48.146;11.576;2023-05-12T20:52:12;95000.44;;;16.13;67.62
15444;BME280;7822;48.146;11.576;2023-05-12T20:54:40;94995.38;;;16.12;67.65
15444;BME280;7822;48.146;11.576;2023-05-12T20:57:07;94994.25;;;16.14;68.16
15444;BME280;7822;48.146;11.576;2023-05-12T20:59:35;94992.59;;;16.13;68.21
15444;BME280;7822;48.146;11.576;2023-05-12T21:02:02;95001.09;;;16.15;68.18
15444;BME280;7822;48.146;11.576;2023-05-12T21:04:30;95000.13;;;16.16;68.42
15444;BME280;7822;48.146;11.576;2023-05-12T21:06:59;94993.59;;;16.12;67.74
15444;BME280;7822;48.146;11.576;2023-05-12T21:09:26;94999.50;;;16.14;68.68
15444;BME280;7822;48.146;11.576;2023-05-12T21:11:54;95001.44;;;16.12;67.86
15444;BME280;7822;48.146;11.576;2023-05-12T21:14:21;94995.69;;;16.09;67.54
15444;BME280;7822;48.146;11.576;2023-05-12T21:16:49;95000.28;;;16.07;67.46
15444;BME280;7822;48.146;11.576;2023-05-12T21:19:16;95000.59;;;16.04;67.72
15444;BME280;7822;48.146;11.576;2023-05-12T21:21:44;95005.34;;;16.00;67.64
15444;BME280;7822;48.146;11.576;2023-05-12T21:24:13;95008.13;;;15.99;67.73
15444;BME280;7822;48.146;11.576;2023-05-12T21:26:40;95005.66;;;15.97;67.59
15444;BME280;7822;48.146;11.576;2023-05-12T21:29:08;95006.00;;;15.94;67.59
15444;BME280;7822;48.146;11.576;2023-05-12T21:31:36;95004.50;;;15.92;67.56
15444;BME280;7822;48.146;11.576;2023-05-12T21:34:03;95008.91;;;15.91;67.63
15444;BME280;7822;48.146;11.576;2023-05-12T21:36:31;95010.72;;;15.91;67.53
15444;BME280;7822;48.146;11.576;2023-05-12T21:38:59;95012.53;;;15.90;67.53
15444;BME280;7822;48.146;11.576;2023-05-12T21:41:28;95014.31;;;15.90;67.86
15444;BME280;7822;48.146;11.576;2023-05-12T21:43:56;95013.31;;;15.91;67.83
15444;BME280;7822;48.146;11.576;2023-05-12T21:46:23;95012.66;;;15.89;67.64
15444;BME280;7822;48.146;11.576;2023-05-12T21:48:51;95006.78;;;15.87;67.86
15444;BME280;7822;48.146;11.576;2023-05-12T21:51:19;95013.00;;;15.86;67.53
15444;BME280;7822;48.146;11.576;2023-05-12T21:53:46;95015.63;;;15.86;67.92
15444;BME280;7822;48.146;11.576;2023-05-12T21:56:14;95013.97;;;15.85;67.71
15444;BME280;7822;48.146;11.576;2023-05-12T21:58:43;95010.53;;;15.84;67.86
15444;BME280;7822;48.146;11.576;2023-05-12T22:01:11;95017.59;;;15.84;67.74
15444;BME280;7822;48.146;11.576;2023-05-12T22:03:39;95009.88;;;15.82;67.70
15444;BME280;7822;48.146;11.576;2023-05-12T22:06:07;95010.03;;;15.81;67.22
15444;BME280;7822;48.146;11.576;2023-05-12T22:08:34;95009.38;;;15.79;67.31
15444;BME280;7822;48.146;11.576;2023-05-12T22:11:02;95008.56;;;15.78;67.20
15444;BME280;7822;48.146;11.576;2023-05-12T22:13:30;95019.19;;;15.77;67.04
15444;BME280;7822;48.146;11.576;2023-05-12T22:15:59;95014.94;;;15.76;67.26
15444;BME280;7822;48.146;11.576;2023-05-12T22:18:26;95013.78;;;15.78;67.71
15444;BME280;7822;48.146;11.576;2023-05-12T22:20:54;95008.56;;;15.78;68.47
15444;BME280;7822;48.146;11.576;2023-05-12T22:23:22;95007.44;;;15.81;68.73
15444;BME280;7822;48.146;11.576;2023-05-12T22:25:49;95008.91;;;15.83;69.03
15444;BME280;7822;48.146;11.576;2023-05-12T22:28:17;95006.13;;;15.85;68.98
15444;BME280;7822;48.146;11.576;2023-05-12T22:30:45;95001.72;;;15.85;69.39
15444;BME280;7822;48.146;11.576;2023-05-12T22:33:14;95005.00;;;15.87;69.68
15444;BME280;7822;48.146;11.576;2023-05-12T22:35:41;94999.75;;;15.87;69.79
15444;BME280;7822;48.146;11.576;2023-05-12T22:38:09;95005.00;;;15.87;69.90
15444;BME280;7822;48.146;11.576;2023-05-12T22:40:37;95001.25;;;15.90;70.15
15444;BME280;7822;48.146;11.576;2023-05-12T22:43:04;94997.63;;;15.91;70.19
15444;BME280;7822;48.146;11.576;2023-05-12T22:45:32;95004.69;;;15.90;70.38
15444;BME280;7822;48.146;11.576;2023-05-12T22:48:00;95001.25;;;15.90;70.39
15444;BME280;7822;48.146;11.576;2023-05-12T22:50:29;95001.06;;;15.91;70.56
15444;BME280;7822;48.146;11.576;2023-05-12T22:52:58;95003.84;;;15.90;70.75
15444;BME280;7822;48.146;11.576;2023-05-12T22:55:25;95003.69;;;15.91;70.77
15444;BME280;7822;48.146;11.576;2023-05-12T22:57:56;94997.63;;;15.91;70.82